Flight Track Log - Related Links

Times and Time Zones

All times are in EDT time to prevent confusion due to time zone crossing. See the UPS1337 flight status page for this flight to view local times or setup timezone preferences in your user account.

Time Position Orientation Groundspeed Altitude Reporting Facility
EDT Latitude Longitude Course Direction KTS MPH feet Rate Location/Type
Wed 09:42:15 PM 27.8880 -82.6850 175° South 160 184 1,300  Level FlightAware ADS-B
Wed 09:42:35 PM 27.8720 -82.6840 177° South 175 201 2,200 2,160 Climbing FlightAware ADS-B
Wed 09:43:05 PM 27.8430 -82.6810 175° South 230 265 3,100 1,950 Climbing FlightAware ADS-B
Wed 09:43:15 PM 27.8310 -82.6820 184° South 248 285 3,500 2,400 Climbing FlightAware ADS-B
Wed 09:43:20 PM 27.8250 -82.6840 196° South 259 298 3,700 1,800 Climbing FlightAware ADS-B
Wed 09:43:25 PM 27.8200 -82.6870 208° Southwest 259 298 3,800 2,400 Climbing FlightAware ADS-B
Wed 09:43:35 PM 27.8100 -82.6960 219° Southwest 274 315 4,300 3,200 Climbing FlightAware ADS-B
Wed 09:43:40 PM 27.8060 -82.7010 228° Southwest 277 319 4,600 3,600 Climbing FlightAware ADS-B
Wed 09:43:45 PM 27.8020 -82.7070 233° Southwest 285 328 4,900 4,000 Climbing FlightAware ADS-B
Wed 09:43:55 PM 27.7980 -82.7210 252° West 284 327 5,600 3,900 Climbing FlightAware ADS-B
Wed 09:44:05 PM 27.7960 -82.7360 261° West 290 334 6,200 3,568 Climbing FlightAware ADS-B
Wed 09:44:32 PM 27.8120 -82.7720 297° West 296 341 7,800 3,771 Climbing FlightAware ADS-B
Wed 09:44:40 PM 27.8230 -82.7800 327° Northwest 297 342 8,400 4,000 Climbing FlightAware ADS-B
Wed 09:44:44 PM 27.8280 -82.7830 332° Northwest 297 342 8,600 3,500 Climbing FlightAware ADS-B
Wed 09:44:52 PM 27.8390 -82.7860 346° North 296 341 9,100 3,429 Climbing FlightAware ADS-B
Wed 09:44:58 PM 27.8470 -82.7860 360° North 296 341 9,400 3,214 Climbing FlightAware ADS-B
Wed 09:45:20 PM 27.8780 -82.7840 North 309 356 10,600 2,172 Climbing FlightAware ADS-B
Wed 09:45:56 PM 27.9330 -82.7790 North 358 412 11,500 1,164 Climbing FlightAware ADS-B
Wed 09:46:27 PM 27.9870 -82.7730 North 390 449 11,900 1,235 Climbing FlightAware ADS-B
Wed 09:47:04 PM 28.0550 -82.7660 North 392 451 12,900 2,000 Climbing FlightAware ADS-B
Wed 09:47:33 PM 28.1000 -82.7700 356° North 401 461 14,100 2,862 Climbing FlightAware ADS-B
Wed 09:48:09 PM 28.1750 -82.7820 352° North 412 474 16,000 2,917 Climbing FlightAware ADS-B
Wed 09:48:45 PM 28.2410 -82.7900 354° North 418 481 17,600 2,735 Climbing FlightAware ADS-B
Wed 09:49:17 PM 28.3070 -82.7990 353° North 424 488 19,100 2,609 Climbing FlightAware ADS-B
Wed 09:49:54 PM 28.3800 -82.8080 354° North 430 495 20,600 2,500 Climbing FlightAware ADS-B
Wed 09:50:29 PM 28.4490 -82.8170 353° North 435 501 22,100 2,328 Climbing FlightAware ADS-B
Wed 09:51:01 PM 28.5130 -82.8260 353° North 439 505 23,200 2,087 Climbing FlightAware ADS-B
Wed 09:51:38 PM 28.5900 -82.8360 353° North 448 516 24,500 1,865 Climbing FlightAware ADS-B
Wed 09:52:15 PM 28.6660 -82.8470 353° North 458 527 25,500 1,652 Climbing FlightAware ADS-B
Wed 09:52:47 PM 28.7360 -82.8560 354° North 465 535 26,400 1,636 Climbing FlightAware ADS-B
Wed 09:53:21 PM 28.8080 -82.8660 353° North 469 540 27,300 1,833 Climbing FlightAware ADS-B
Wed 09:53:59 PM 28.8890 -82.8770 353° North 467 537 28,600 2,057 Climbing FlightAware ADS-B
Wed 09:54:31 PM 28.9590 -82.8860 354° North 465 535 29,700 1,970 Climbing FlightAware ADS-B
Wed 09:55:06 PM 29.0340 -82.8960 353° North 463 533 30,800 1,521 Climbing FlightAware ADS-B
Wed 09:55:42 PM 29.1110 -82.9070 353° North 460 529 31,500 892 Climbing FlightAware ADS-B
Wed 09:56:20 PM 29.1890 -82.9170 354° North 464 534 31,900 448 Climbing FlightAware ADS-B
Wed 09:56:49 PM 29.2540 -82.9260 353° North 465 535 32,000 90 Climbing FlightAware ADS-B
Wed 09:57:27 PM 29.3330 -82.9370 353° North 461 531 32,000  Level FlightAware ADS-B
Wed 09:58:01 PM 29.4050 -82.9460 354° North 458 527 32,000 82 Level FlightAware ADS-B
Wed 09:58:40 PM 29.4890 -82.9570 353° North 457 526 32,100 429 Climbing FlightAware ADS-B
Wed 09:59:11 PM 29.5520 -82.9660 353° North 454 522 32,500 896 Climbing FlightAware ADS-B
Wed 09:59:47 PM 29.6280 -82.9770 353° North 452 520 33,100 1,014 Climbing FlightAware ADS-B
Wed 10:00:22 PM 29.7010 -82.9870 353° North 453 521 33,700 750 Climbing FlightAware ADS-B
Wed 10:00:59 PM 29.7770 -82.9970 353° North 456 525 34,000 261 Climbing FlightAware ADS-B
Wed 10:01:31 PM 29.8450 -83.0060 353° North 454 522 34,000  Level FlightAware ADS-B
Wed 10:02:17 PM 29.9390 -83.0190 353° North 449 517 34,000  Level FlightAware ADS-B
Wed 10:02:53 PM 30.0160 -83.0300 353° North 450 518 34,000  Level FlightAware ADS-B
Wed 10:03:24 PM 30.0770 -83.0380 354° North 451 519 34,000  Level FlightAware ADS-B
Wed 10:04:01 PM 30.1560 -83.0490 353° North 451 519 34,000  Level FlightAware ADS-B
Wed 10:04:36 PM 30.2280 -83.0590 353° North 447 514 34,000  Level FlightAware ADS-B
Wed 10:05:06 PM 30.2890 -83.0680 353° North 447 514 34,000  Level FlightAware ADS-B
Wed 10:05:44 PM 30.3700 -83.0790 353° North 446 513 34,000  Level FlightAware ADS-B
Wed 10:06:20 PM 30.4420 -83.0890 353° North 447 514 34,000  Level FlightAware ADS-B
Wed 10:06:57 PM 30.5170 -83.0990 353° North 446 513 34,000  Level FlightAware ADS-B
Wed 10:07:32 PM 30.5900 -83.1090 353° North 444 511 34,000  Level FlightAware ADS-B
Wed 10:08:05 PM 30.6570 -83.1180 353° North 443 510 34,000  Level FlightAware ADS-B
Wed 10:08:39 PM 30.7260 -83.1280 353° North 443 510 34,000  Level FlightAware ADS-B
Wed 10:09:16 PM 30.8030 -83.1390 353° North 444 511 34,000  Level FlightAware ADS-B
Wed 10:09:53 PM 30.8770 -83.1490 353° North 445 512 34,000  Level FlightAware ADS-B
Wed 10:10:24 PM 30.9410 -83.1580 353° North 444 511 34,000  Level FlightAware ADS-B
Wed 10:11:00 PM 31.0150 -83.1690 353° North 442 509 34,000  Level FlightAware ADS-B
Wed 10:11:38 PM 31.0800 -83.1780 353° North 442 509 34,000  Level FlightAware ADS-B
Wed 10:12:12 PM 31.1600 -83.1890 353° North 441 507 34,000  Level FlightAware ADS-B
Wed 10:12:45 PM 31.2280 -83.1990 353° North 441 507 34,000  Level FlightAware ADS-B
Wed 10:13:18 PM 31.2920 -83.2080 353° North 442 509 34,000  Level FlightAware ADS-B
Wed 10:13:57 PM 31.3740 -83.2190 353° North 440 506 34,000  Level FlightAware ADS-B
Wed 10:14:36 PM 31.4530 -83.2300 353° North 442 509 34,000  Level FlightAware ADS-B
Wed 10:15:13 PM 31.5270 -83.2410 353° North 441 507 34,000  Level FlightAware ADS-B
Wed 10:16:06 PM 31.6280 -83.2550 353° North 441 507 34,000  Level FlightAware ADS-B
Wed 10:17:02 PM 31.7400 -83.2720 353° North 440 506 34,000  Level FlightAware ADS-B
Wed 10:17:38 PM 31.8020 -83.2830 351° North 440 506 34,000  Level FlightAware ADS-B
Wed 10:18:14 PM 31.8640 -83.2930 352° North 440 506 34,000  Level FlightAware ADS-B
Wed 10:18:51 PM 31.9270 -83.3030 352° North 440 506 34,000  Level FlightAware ADS-B
Wed 10:19:26 PM 32.0410 -83.3140 355° North 439 505 34,000  Level FlightAware ADS-B
Wed 10:19:58 PM 32.1020 -83.3230 353° North 440 506 34,000  Level FlightAware ADS-B
Wed 10:20:35 PM 32.1650 -83.3340 352° North 440 506 34,000  Level FlightAware ADS-B
Wed 10:21:16 PM 32.2630 -83.3460 354° North 441 507 34,000  Level FlightAware ADS-B
Wed 10:21:52 PM 32.3340 -83.3570 353° North 442 509 34,000  Level FlightAware ADS-B
Wed 10:22:24 PM 32.4020 -83.3660 354° North 441 507 34,000  Level FlightAware ADS-B
Wed 10:23:05 PM 32.4770 -83.3780 352° North 441 507 34,000  Level FlightAware ADS-B
Wed 10:23:35 PM 32.5400 -83.3870 353° North 444 511 34,000  Level FlightAware ADS-B
Wed 10:24:05 PM 32.6050 -83.3960 353° North 443 510 34,000  Level FlightAware ADS-B
Wed 10:24:48 PM 32.6950 -83.4090 353° North 441 507 34,000  Level FlightAware ADS-B
Wed 10:25:21 PM 32.7600 -83.4190 353° North 441 507 34,000  Level FlightAware ADS-B
Wed 10:26:14 PM 32.8550 -83.4330 353° North 441 507 34,000  Level FlightAware ADS-B
Wed 10:26:46 PM 32.9340 -83.4440 353° North 443 510 34,000  Level FlightAware ADS-B
Wed 10:27:22 PM 33.0070 -83.4550 353° North 443 510 34,000  Level FlightAware ADS-B
Wed 10:27:54 PM 33.0720 -83.4640 353° North 444 511 34,000  Level FlightAware ADS-B
Wed 10:28:30 PM 33.1460 -83.4750 353° North 446 513 34,000  Level FlightAware ADS-B
Wed 10:29:04 PM 33.2170 -83.4850 353° North 447 514 34,000  Level FlightAware ADS-B
Wed 10:29:42 PM 33.2940 -83.4970 353° North 446 513 34,000  Level FlightAware ADS-B
Wed 10:30:18 PM 33.3670 -83.5080 353° North 447 514 34,000  Level FlightAware ADS-B
Wed 10:30:50 PM 33.4310 -83.5170 353° North 449 517 34,000  Level FlightAware ADS-B
Wed 10:31:26 PM 33.5040 -83.5280 353° North 449 517 34,000  Level FlightAware ADS-B
Wed 10:32:02 PM 33.5810 -83.5390 353° North 446 513 34,000  Level FlightAware ADS-B
Wed 10:32:34 PM 33.6440 -83.5490 352° North 446 513 34,000  Level FlightAware ADS-B
Wed 10:33:08 PM 33.7150 -83.5590 353° North 446 513 34,000  Level FlightAware ADS-B
Wed 10:33:46 PM 33.7940 -83.5710 353° North 450 518 34,000  Level FlightAware ADS-B
Wed 10:34:22 PM 33.8690 -83.5820 353° North 448 516 34,000  Level FlightAware ADS-B
Wed 10:34:54 PM 33.9320 -83.5920 352° North 447 514 34,000  Level FlightAware ADS-B
Wed 10:35:30 PM 34.0080 -83.6030 353° North 447 514 34,000  Level FlightAware ADS-B
Wed 10:36:07 PM 34.0840 -83.6140 353° North 448 516 34,000  Level FlightAware ADS-B
Wed 10:36:18 PM 34.1093 -83.6183 352° North 449 517 34,000  Level FlightAware ADS-B
Wed 10:37:14 PM 34.2200 -83.6350 353° North 450 518 34,000  Level FlightAware ADS-B
Wed 10:37:35 PM 34.2678 -83.6423 353° North 450 518 34,000  Level FlightAware ADS-B
Wed 10:38:06 PM 34.3318 -83.6520 353° North 451 519 34,000  Level FlightAware ADS-B
Wed 10:38:37 PM 34.3956 -83.6616 353° North 450 518 34,000  Level FlightAware ADS-B
Wed 10:39:36 PM 34.5180 -83.6800 353° North 448 516 34,000  Level FlightAware ADS-B
Wed 10:39:45 PM 34.5356 -83.6829 352° North 449 517 34,000  Level FlightAware ADS-B
Wed 10:40:16 PM 34.6012 -83.6929 353° North 450 518 34,000  Level FlightAware ADS-B
Wed 10:40:47 PM 34.6649 -83.7026 353° North 450 518 34,000  Level FlightAware ADS-B
Wed 10:41:20 PM 34.7330 -83.7130 353° North 449 517 34,000  Level FlightAware ADS-B
Wed 10:41:56 PM 34.7822 -83.7205 353° North 452 520 34,000  Level FlightAware ADS-B
Wed 10:42:27 PM 34.8714 -83.7342 353° North 454 522 34,000  Level FlightAware ADS-B
Wed 10:43:02 PM 34.9440 -83.7450 353° North 452 520 34,000  Level FlightAware ADS-B
Wed 10:43:34 PM 35.0120 -83.7560 352° North 451 519 34,000  Level FlightAware ADS-B
Wed 10:44:06 PM 35.0765 -83.7657 353° North 453 521 34,000  Level FlightAware ADS-B
Wed 10:44:37 PM 35.1428 -83.7760 353° North 455 524 34,000  Level FlightAware ADS-B
Wed 10:45:08 PM 35.2067 -83.7860 353° North 456 525 34,000  Level FlightAware ADS-B
Wed 10:45:56 PM 35.3050 -83.8010 353° North 456 525 34,000  Level FlightAware ADS-B
Wed 10:46:16 PM 35.3490 -83.8079 353° North 458 527 34,000  Level FlightAware ADS-B
Wed 10:46:48 PM 35.4180 -83.8186 353° North 457 526 34,000  Level FlightAware ADS-B
Wed 10:47:20 PM 35.4849 -83.8290 353° North 457 526 34,000  Level FlightAware ADS-B
Wed 10:48:26 PM 35.6227 -83.8504 353° North 459 528 34,000  Level FlightAware ADS-B
Wed 10:48:57 PM 35.6878 -83.8606 353° North 461 531 34,000  Level FlightAware ADS-B
Wed 10:49:30 PM 35.7575 -83.8716 353° North 462 532 34,000  Level FlightAware ADS-B
Wed 10:50:05 PM 35.8310 -83.8840 352° North 462 532 34,000  Level FlightAware ADS-B
Wed 10:50:36 PM 35.8958 -83.9017 348° North 463 533 34,000  Level FlightAware ADS-B
Wed 10:51:01 PM 35.9482 -83.9236 341° North 462 532 34,000  Level FlightAware ADS-B
Wed 10:51:37 PM 36.0182 -83.9628 336° Northwest 463 533 34,000 -429 Level FlightAware ADS-B
Wed 10:52:25 PM 36.1100 -84.0170 335° Northwest 461 531 33,400 -957 Descending FlightAware ADS-B
Wed 10:52:46 PM 36.1507 -84.0413 334° Northwest 462 532 32,900 -1,472 Descending FlightAware ADS-B
Wed 10:53:18 PM 36.2137 -84.0789 334° Northwest 466 536 32,100 -1,500 Descending FlightAware ADS-B
Wed 10:53:50 PM 36.2744 -84.1151 334° Northwest 468 539 31,300 -1,310 Descending FlightAware ADS-B
Wed 10:54:45 PM 36.3830 -84.1800 334° Northwest 457 526 30,200 -1,091 Descending FlightAware ADS-B
Wed 10:54:56 PM 36.4036 -84.1927 334° Northwest 449 517 30,100 -286 Descending FlightAware ADS-B
Wed 10:55:27 PM 36.4597 -84.2265 334° Northwest 439 505 30,000 -98 Descending FlightAware ADS-B
Wed 10:55:57 PM 36.5148 -84.2597 334° Northwest 438 504 30,000 -692 Level FlightAware ADS-B
Wed 10:56:45 PM 36.6000 -84.3110 334° Northwest 435 501 29,100 -1,200 Descending FlightAware ADS-B
Wed 10:57:07 PM 36.6376 -84.3335 334° Northwest 429 494 28,600 -1,500 Descending FlightAware ADS-B
Wed 10:57:37 PM 36.6956 -84.3683 334° Northwest 424 488 27,800 -1,574 Descending FlightAware ADS-B
Wed 10:58:08 PM 36.7502 -84.4012 334° Northwest 420 483 27,000 -1,548 Descending FlightAware ADS-B
Wed 10:58:39 PM 36.8040 -84.4340 334° Northwest 417 480 26,200 -1,739 Descending FlightAware ADS-B
Wed 10:59:17 PM 36.8646 -84.4701 335° Northwest 412 474 25,000 -2,118 Descending FlightAware ADS-B
Wed 10:59:47 PM 36.9200 -84.5037 334° Northwest 404 465 23,800 -2,262 Descending FlightAware ADS-B
Wed 11:00:18 PM 36.9720 -84.5351 334° Northwest 400 460 22,700 -2,214 Descending FlightAware ADS-B
Wed 11:01:11 PM 37.0600 -84.5890 334° Northwest 390 449 20,700 -2,174 Descending FlightAware ADS-B
Wed 11:01:27 PM 37.0846 -84.6036 335° Northwest 388 447 20,200 -2,217 Descending FlightAware ADS-B
Wed 11:01:57 PM 37.1336 -84.6334 334° Northwest 384 442 19,000 -2,200 Descending FlightAware ADS-B
Wed 11:02:27 PM 37.1813 -84.6625 334° Northwest 380 437 18,000 -1,969 Descending FlightAware ADS-B
Wed 11:03:01 PM 37.2330 -84.6940 334° Northwest 374 430 16,900 -1,622 Descending FlightAware ADS-B
Wed 11:03:41 PM 37.2719 -84.7178 334° Northwest 365 420 16,000 -2,023 Descending FlightAware ADS-B
Wed 11:04:27 PM 37.3620 -84.7730 334° Northwest 351 404 14,000 -1,875 Descending FlightAware ADS-B
Wed 11:05:01 PM 37.4090 -84.8020 334° Northwest 329 379 13,500 -943 Descending FlightAware ADS-B
Wed 11:05:37 PM 37.4570 -84.8320 334° Northwest 308 354 12,900 -1,286 Descending FlightAware ADS-B
Wed 11:06:11 PM 37.5010 -84.8590 334° Northwest 301 346 12,000 -1,457 Descending FlightAware ADS-B
Wed 11:06:47 PM 37.5460 -84.8860 335° Northwest 293 337 11,200 -1,000 Descending FlightAware ADS-B
Wed 11:07:23 PM 37.5870 -84.9110 334° Northwest 287 330 10,800 -1,161 Descending FlightAware ADS-B
Wed 11:07:49 PM 37.6200 -84.9320 333° Northwest 288 331 10,000 -1,750 Descending FlightAware ADS-B
Wed 11:08:11 PM 37.6450 -84.9470 335° Northwest 287 330 9,400 -1,600 Descending FlightAware ADS-B
Wed 11:08:19 PM 37.6560 -84.9560 327° Northwest 286 329 9,200 -1,500 Descending FlightAware ADS-B
Wed 11:08:27 PM 37.6630 -84.9650 314° West 285 328 9,000 -1,500 Descending FlightAware ADS-B
Wed 11:08:47 PM 37.6810 -84.9890 313° West 280 322 8,500 -1,350 Descending FlightAware ADS-B
Wed 11:09:07 PM 37.6970 -85.0120 311° West 278 320 8,100 -818 Descending FlightAware ADS-B
Wed 11:09:31 PM 37.7190 -85.0420 313° West 276 318 7,900 -286 Descending FlightAware ADS-B
Wed 11:09:49 PM 37.7340 -85.0620 313° West 276 318 7,900 -450 Level FlightAware ADS-B
Wed 11:10:11 PM 37.7540 -85.0890 313° West 273 314 7,600 -1,143 Descending FlightAware ADS-B
Wed 11:10:31 PM 37.7690 -85.1130 308° West 274 315 7,100 -1,500 Descending FlightAware ADS-B
Wed 11:10:39 PM 37.7740 -85.1250 298° West 274 315 6,900 -1,500 Descending FlightAware ADS-B
Wed 11:10:59 PM 37.7850 -85.1530 296° West 271 312 6,400 -1,500 Descending FlightAware ADS-B
Wed 11:11:23 PM 37.7980 -85.1880 295° West 270 311 5,800 -1,500 Descending FlightAware ADS-B
Wed 11:11:43 PM 37.8090 -85.2170 296° West 269 310 5,300 -828 Descending FlightAware ADS-B
Wed 11:12:21 PM 37.8260 -85.2640 295° West 267 307 5,000 -824 Descending FlightAware ADS-B
Wed 11:13:25 PM 37.8600 -85.3520 296° West 267 307 3,900 -929 Descending FlightAware ADS-B
Wed 11:13:45 PM 37.8730 -85.3860 296° West 269 310 3,700 -698 Descending FlightAware ADS-B
Wed 11:14:08 PM 37.8860 -85.4200 296° West 267 307 3,400 -1,000 Descending FlightAware ADS-B
Wed 11:14:21 PM 37.8920 -85.4380 293° West 263 303 3,100 -909 Descending FlightAware ADS-B
Wed 11:14:41 PM 37.9020 -85.4660 294° West 257 296 2,900 -286 Descending FlightAware ADS-B
Wed 11:15:03 PM 37.9140 -85.4960 297° West 256 295 2,900  Level FlightAware ADS-B
Wed 11:15:25 PM 37.9230 -85.5200 295° West 247 284 2,900  Level FlightAware ADS-B
Wed 11:15:45 PM 37.9330 -85.5490 294° West 232 267 2,900  Level FlightAware ADS-B
Wed 11:16:00 PM 37.9380 -85.5620 296° West 228 262 2,900  Level FlightAware ADS-B
Wed 11:16:20 PM 37.9480 -85.5890 295° West 218 251 2,900  Level FlightAware ADS-B
Wed 11:16:40 PM 37.9550 -85.6130 290° West 208 239 2,900  Level FlightAware ADS-B
Wed 11:17:00 PM 37.9640 -85.6340 299° West 197 227 2,900  Level FlightAware ADS-B
Wed 11:17:10 PM 37.9700 -85.6420 314° West 193 222 2,900  Level FlightAware ADS-B
Wed 11:17:20 PM 37.9760 -85.6500 314° West 193 222 2,900  Level FlightAware ADS-B
Wed 11:17:40 PM 37.9880 -85.6610 324° Northwest 192 221 2,900  Level FlightAware ADS-B
Wed 11:17:46 PM 37.9940 -85.6650 332° Northwest 193 222 2,900  Level FlightAware ADS-B
Wed 11:18:05 PM 38.0080 -85.6700 344° North 184 212 2,900  Level FlightAware ADS-B
Wed 11:18:35 PM 38.0360 -85.6800 344° North 170 196 2,900 -375 Level FlightAware ADS-B
Wed 11:18:53 PM 38.0490 -85.6840 346° North 172 198 2,600 -900 Descending FlightAware ADS-B
Wed 11:19:15 PM 38.0660 -85.6900 344° North 162 186 2,300 -783 Descending FlightAware ADS-B
Wed 11:19:39 PM 38.0830 -85.6960 344° North 146 168 2,000 -682 Descending FlightAware ADS-B
Wed 11:19:59 PM 38.0950 -85.7000 345° North 135 155 1,800 -750 Descending FlightAware ADS-B
Wed 11:20:11 PM 38.1030 -85.7030 344° North 139 160 1,600 -833 Descending FlightAware ADS-B
Wed 11:20:35 PM 38.1170 -85.7070 347° North 137 158 1,300 -682 Descending FlightAware ADS-B
Wed 11:20:55 PM 38.1300 -85.7120 343° North 140 161 1,100 -750 Descending FlightAware ADS-B
Wed 11:21:15 PM 38.1430 -85.7160 346° North 141 162 800 -833 Descending FlightAware ADS-B
Wed 11:21:31 PM 38.1530 -85.7200 343° North 140 161 600 -649 Descending FlightAware ADS-B
Wed 11:21:52 PM 38.1650 -85.7240 345° North 140 161 400 -571 Descending FlightAware ADS-B

Login

Don't have an account? Register now (free) for customized features, flight alerts, and more!